Time;durP1;ratioP1;P1;durP2;ratioP2;P2;SDS_P1;SDS_P2;PMS_P1;PMS_P2;Temp;Humidity;BMP_temperature;BMP_pressure;BME280_temperature;BME280_humidity;BME280_pressure;Samples;Min_cycle;Max_cycle;Signal;HPM_P1;HPM_P2
2022/01/29 00:02:18;;;;;;;;;;;6.70;99.90;;;;;;5052887;28;20607;-67
2022/01/29 00:04:44;;;;;;;;;;;6.70;99.90;;;;;;5071457;28;20027;-67
2022/01/29 00:07:10;;;;;;;;;;;6.80;99.90;;;;;;5069385;28;20030;-65
2022/01/29 00:09:36;;;;;;;;;;;6.80;99.90;;;;;;5092754;28;20065;-65
2022/01/29 00:12:02;;;;;;;;;;;6.80;99.90;;;;;;5089946;28;19935;-65
2022/01/29 00:14:27;;;;;;;;;;;6.80;99.90;;;;;;5073067;28;19924;-64
2022/01/29 00:16:53;;;;;;;;;;;6.80;99.90;;;;;;5090813;28;20033;-64
2022/01/29 00:19:19;;;;;;;;;;;6.80;99.90;;;;;;5071428;28;19928;-65
2022/01/29 00:21:44;;;;;;;;;;;6.90;99.90;;;;;;5091249;28;19935;-64
2022/01/29 00:24:10;;;;;;;;;;;6.90;99.90;;;;;;5090591;28;20000;-64
2022/01/29 00:26:35;;;;;;;;;;;6.90;99.90;;;;;;5055747;28;19924;-64
2022/01/29 00:29:08;;;;;;;;;;;6.90;99.90;;;;;;5054197;28;19924;-65
2022/01/29 00:31:34;;;;;;;;;;;6.90;99.90;;;;;;5091143;28;19975;-64
2022/01/29 00:33:59;;;;;;;;;;;6.90;99.90;;;;;;5090380;28;19986;-65
2022/01/29 00:36:25;;;;;;;;;;;6.90;99.90;;;;;;5072669;28;20060;-65
2022/01/29 00:38:50;;;;;;;;;;;6.90;99.90;;;;;;5076189;28;20030;-67
2022/01/29 00:41:16;;;;;;;;;;;6.90;99.90;;;;;;5037337;28;20010;-65
2022/01/29 00:43:42;;;;;;;;;;;6.90;99.90;;;;;;5070542;28;20020;-66
2022/01/29 00:46:07;;;;;;;;;;;6.90;99.90;;;;;;5081318;28;20018;-66
2022/01/29 00:48:33;;;;;;;;;;;6.80;99.90;;;;;;5090910;28;20379;-66
2022/01/29 00:51:00;;;;;;;;;;;6.90;99.90;;;;;;5059472;28;20489;-65
2022/01/29 00:53:26;;;;;;;;;;;6.80;99.90;;;;;;5052426;28;19972;-65
2022/01/29 00:55:51;;;;;;;;;;;6.90;99.90;;;;;;5076729;28;19928;-66
2022/01/29 00:58:17;;;;;;;;;;;6.90;99.90;;;;;;5051170;28;19936;-65
2022/01/29 01:00:44;;;;;;;;;;;6.90;99.90;;;;;;5069880;28;19928;-66
2022/01/29 01:03:10;;;;;;;;;;;6.90;99.90;;;;;;5068580;28;20027;-65
2022/01/29 01:05:35;;;;;;;;;;;6.90;99.90;;;;;;5060896;28;20363;-65
2022/01/29 01:08:01;;;;;;;;;;;6.90;99.90;;;;;;5049944;28;19925;-64
2022/01/29 01:10:27;;;;;;;;;;;7.00;99.90;;;;;;5051584;28;19925;-66
2022/01/29 01:12:52;;;;;;;;;;;7.00;99.90;;;;;;5049140;28;19964;-65
2022/01/29 01:15:18;;;;;;;;;;;7.00;99.90;;;;;;5050408;28;19975;-64
2022/01/29 01:17:43;;;;;;;;;;;7.00;99.90;;;;;;5050371;28;19952;-65
2022/01/29 01:20:09;;;;;;;;;;;7.00;99.90;;;;;;5048625;28;19929;-64
2022/01/29 01:22:35;;;;;;;;;;;7.00;99.90;;;;;;5051638;28;19983;-64
2022/01/29 01:25:01;;;;;;;;;;;7.00;99.90;;;;;;5056101;28;20023;-67
2022/01/29 01:27:26;;;;;;;;;;;7.00;99.90;;;;;;5070349;28;19928;-65
2022/01/29 01:29:52;;;;;;;;;;;7.00;99.90;;;;;;5069416;28;19924;-64
2022/01/29 01:32:17;;;;;;;;;;;7.00;99.90;;;;;;5067970;28;19935;-64
2022/01/29 01:34:48;;;;;;;;;;;7.00;99.90;;;;;;5068477;28;20019;-67
2022/01/29 01:37:35;;;;;;;;;;;7.10;99.90;;;;;;5068740;28;20386;-66
2022/01/29 01:40:01;;;;;;;;;;;7.10;99.90;;;;;;5070092;28;19951;-72
2022/01/29 01:42:27;;;;;;;;;;;7.10;99.90;;;;;;5064423;28;19928;-66
2022/01/29 01:44:53;;;;;;;;;;;7.10;99.90;;;;;;5056960;28;19924;-65
2022/01/29 01:47:19;;;;;;;;;;;7.10;99.90;;;;;;5068396;28;19929;-66
2022/01/29 01:49:45;;;;;;;;;;;7.10;99.90;;;;;;5069296;28;19939;-65
2022/01/29 01:52:12;;;;;;;;;;;7.20;99.90;;;;;;5051411;28;20323;-64
2022/01/29 01:54:38;;;;;;;;;;;7.10;99.90;;;;;;5066519;28;19924;-64
2022/01/29 01:57:04;;;;;;;;;;;7.20;99.90;;;;;;5049824;28;19925;-71
2022/01/29 01:59:30;;;;;;;;;;;7.20;99.90;;;;;;5069195;28;20396;-64
2022/01/29 02:01:55;;;;;;;;;;;7.20;99.90;;;;;;5068781;28;19928;-65
2022/01/29 02:04:21;;;;;;;;;;;7.20;99.90;;;;;;5078219;28;20349;-66
2022/01/29 02:06:49;;;;;;;;;;;7.30;99.90;;;;;;5102510;28;19928;-64
2022/01/29 02:09:16;;;;;;;;;;;7.30;99.90;;;;;;5068398;28;20011;-65
2022/01/29 02:11:50;;;;;;;;;;;7.30;99.90;;;;;;5069892;28;19972;-66
2022/01/29 02:14:16;;;;;;;;;;;7.30;99.90;;;;;;5077510;28;19924;-65
2022/01/29 02:16:41;;;;;;;;;;;7.30;99.90;;;;;;5068316;28;19924;-66
2022/01/29 02:19:07;;;;;;;;;;;7.30;99.90;;;;;;5071120;28;20436;-71
2022/01/29 02:21:36;;;;;;;;;;;7.30;99.90;;;;;;5069958;28;19940;-65
2022/01/29 02:24:01;;;;;;;;;;;7.40;99.90;;;;;;5071354;28;19928;-66
2022/01/29 02:26:27;;;;;;;;;;;7.40;99.90;;;;;;5089771;28;19926;-67
2022/01/29 02:28:54;;;;;;;;;;;7.40;99.90;;;;;;5077473;28;20295;-65
2022/01/29 02:31:20;;;;;;;;;;;7.40;99.90;;;;;;5109679;28;19928;-64
2022/01/29 02:33:45;;;;;;;;;;;7.50;99.90;;;;;;5107394;28;19938;-66
2022/01/29 02:36:11;;;;;;;;;;;7.50;99.90;;;;;;5091737;28;20008;-65
2022/01/29 02:38:36;;;;;;;;;;;7.50;99.90;;;;;;5113766;28;19924;-65
2022/01/29 02:41:05;;;;;;;;;;;7.50;99.90;;;;;;5080617;28;19934;-65
2022/01/29 02:43:36;;;;;;;;;;;7.60;99.90;;;;;;5072924;28;19968;-59
2022/01/29 02:46:28;;;;;;;;;;;7.50;99.90;;;;;;5073449;28;19925;-59
2022/01/29 02:48:52;;;;;;;;;;;7.50;99.90;;;;;;5074743;28;20308;-59
2022/01/29 02:51:18;;;;;;;;;;;7.50;99.90;;;;;;5073844;28;19935;-60
2022/01/29 02:53:44;;;;;;;;;;;7.50;99.90;;;;;;5072742;28;19925;-59
2022/01/29 02:56:09;;;;;;;;;;;7.50;99.90;;;;;;5073230;28;19924;-59
2022/01/29 02:58:35;;;;;;;;;;;7.60;99.90;;;;;;5072167;28;20370;-59
2022/01/29 03:01:02;;;;;;;;;;;7.60;99.90;;;;;;5106826;28;19924;-60
2022/01/29 03:03:27;;;;;;;;;;;7.60;99.90;;;;;;5073658;28;19924;-59
2022/01/29 03:05:53;;;;;;;;;;;7.60;99.90;;;;;;5056092;28;19932;-60
2022/01/29 03:08:19;;;;;;;;;;;7.60;99.90;;;;;;5106149;28;19928;-59
2022/01/29 03:10:47;;;;;;;;;;;7.60;99.90;;;;;;5056058;28;19932;-59
2022/01/29 03:13:13;;;;;;;;;;;7.70;99.90;;;;;;5073824;28;19974;-63
2022/01/29 03:15:38;;;;;;;;;;;7.60;99.90;;;;;;5073558;28;19931;-61
2022/01/29 03:18:04;;;;;;;;;;;7.70;99.90;;;;;;5073788;28;19924;-60
2022/01/29 03:20:30;;;;;;;;;;;7.70;99.90;;;;;;5072184;28;20370;-60
2022/01/29 03:22:56;;;;;;;;;;;7.70;99.90;;;;;;5073715;28;20011;-60
2022/01/29 03:25:22;;;;;;;;;;;7.70;99.90;;;;;;5073232;28;19929;-61
2022/01/29 03:27:48;;;;;;;;;;;7.70;99.90;;;;;;5106188;28;20377;-60
2022/01/29 03:30:13;;;;;;;;;;;7.70;99.90;;;;;;5089158;28;20389;-60
2022/01/29 03:32:39;;;;;;;;;;;7.70;99.90;;;;;;5071772;28;19928;-60
2022/01/29 03:35:05;;;;;;;;;;;7.70;99.90;;;;;;5072641;28;20381;-60
2022/01/29 03:37:30;;;;;;;;;;;7.70;99.90;;;;;;5105189;28;20027;-60
2022/01/29 03:40:00;;;;;;;;;;;7.80;99.90;;;;;;5073408;28;19924;-60
2022/01/29 03:42:27;;;;;;;;;;;7.80;99.90;;;;;;5072963;28;19938;-60
2022/01/29 03:44:54;;;;;;;;;;;7.80;99.90;;;;;;5073377;28;19925;-60
2022/01/29 03:47:20;;;;;;;;;;;7.80;99.90;;;;;;5072805;28;19935;-61
2022/01/29 03:49:45;;;;;;;;;;;7.80;99.90;;;;;;5073248;28;19925;-59
2022/01/29 03:52:11;;;;;;;;;;;7.90;99.90;;;;;;5055235;28;19925;-60
2022/01/29 03:54:36;;;;;;;;;;;7.90;99.90;;;;;;5105611;28;19925;-59
2022/01/29 03:57:02;;;;;;;;;;;7.80;99.90;;;;;;5073038;28;20040;-60
2022/01/29 03:59:28;;;;;;;;;;;7.80;99.90;;;;;;5071053;28;20019;-60
2022/01/29 04:01:53;;;;;;;;;;;7.90;99.90;;;;;;5088823;28;20401;-59
2022/01/29 04:04:19;;;;;;;;;;;7.80;99.90;;;;;;5071819;28;19924;-63
2022/01/29 04:06:45;;;;;;;;;;;7.90;99.90;;;;;;5054846;28;19925;-61
2022/01/29 04:09:11;;;;;;;;;;;7.80;99.90;;;;;;5072742;28;19936;-59
2022/01/29 04:11:38;;;;;;;;;;;7.90;99.90;;;;;;5054589;28;19924;-60
2022/01/29 04:14:16;;;;;;;;;;;7.80;99.90;;;;;;5072702;28;19931;-61
2022/01/29 04:16:42;;;;;;;;;;;7.90;99.90;;;;;;5071390;28;19926;-60
2022/01/29 04:19:07;;;;;;;;;;;7.90;99.90;;;;;;5072221;28;20011;-60
2022/01/29 04:21:33;;;;;;;;;;;7.90;99.90;;;;;;5072271;28;19929;-59
2022/01/29 04:23:59;;;;;;;;;;;7.90;99.90;;;;;;5105209;28;19924;-60
2022/01/29 04:26:24;;;;;;;;;;;7.90;99.90;;;;;;5104996;28;20353;-62
2022/01/29 04:28:51;;;;;;;;;;;7.90;99.90;;;;;;5072341;28;20293;-59
2022/01/29 04:31:20;;;;;;;;;;;8.00;99.90;;;;;;5071176;28;19981;-60
2022/01/29 04:33:45;;;;;;;;;;;8.00;99.90;;;;;;5072035;28;19927;-59
2022/01/29 04:36:11;;;;;;;;;;;8.00;99.90;;;;;;5072405;28;19924;-59
2022/01/29 04:38:37;;;;;;;;;;;8.00;99.90;;;;;;5070562;28;19925;-59
2022/01/29 04:41:04;;;;;;;;;;;8.00;99.90;;;;;;5070970;28;19925;-58
2022/01/29 04:43:34;;;;;;;;;;;8.00;99.90;;;;;;5071746;28;19924;-59
2022/01/29 04:46:00;;;;;;;;;;;8.00;99.90;;;;;;5072233;28;19925;-59
2022/01/29 04:48:26;;;;;;;;;;;8.00;99.90;;;;;;5070683;28;19931;-63
2022/01/29 04:50:51;;;;;;;;;;;8.00;99.90;;;;;;5071226;28;19925;-59
2022/01/29 04:53:17;;;;;;;;;;;8.00;99.90;;;;;;5072003;28;19972;-59
2022/01/29 04:55:42;;;;;;;;;;;8.00;99.90;;;;;;5071683;28;19932;-59
2022/01/29 04:58:08;;;;;;;;;;;8.10;99.90;;;;;;5104413;28;19924;-59
2022/01/29 05:00:35;;;;;;;;;;;8.10;99.90;;;;;;5071243;28;19924;-59
2022/01/29 05:03:14;;;;;;;;;;;8.30;99.90;;;;;;5071953;28;20114;-60
2022/01/29 05:05:40;;;;;;;;;;;8.10;99.90;;;;;;5070245;28;19929;-59
2022/01/29 05:08:05;;;;;;;;;;;8.10;99.90;;;;;;5104619;28;19970;-59
2022/01/29 05:10:31;;;;;;;;;;;8.10;99.90;;;;;;5071385;28;19928;-60
2022/01/29 05:13:07;;;;;;;;;;;8.10;99.90;;;;;;5104221;28;20014;-59
2022/01/29 05:29:05;;;;;;;;;;;8.20;99.90;;;;;;5071954;28;19976;-59
2022/01/29 05:31:31;;;;;;;;;;;8.10;99.90;;;;;;5071455;28;19986;-63
2022/01/29 05:33:57;;;;;;;;;;;8.20;99.90;;;;;;5070429;28;19924;-59
2022/01/29 05:36:23;;;;;;;;;;;8.20;99.90;;;;;;5071636;28;20342;-60
2022/01/29 05:38:48;;;;;;;;;;;8.10;99.90;;;;;;5070937;28;19946;-60
2022/01/29 05:41:14;;;;;;;;;;;8.20;99.90;;;;;;5070385;28;19978;-60
2022/01/29 05:43:40;;;;;;;;;;;8.20;99.90;;;;;;5071193;28;19928;-60
2022/01/29 05:46:05;;;;;;;;;;;8.20;99.90;;;;;;5071558;28;20007;-61
2022/01/29 05:48:31;;;;;;;;;;;8.20;99.90;;;;;;5087422;28;19979;-60
2022/01/29 05:50:56;;;;;;;;;;;8.20;99.90;;;;;;5071179;28;20152;-59
2022/01/29 05:53:22;;;;;;;;;;;8.20;99.90;;;;;;5071277;28;19943;-60
2022/01/29 05:55:48;;;;;;;;;;;8.20;99.90;;;;;;5103797;28;20405;-60
2022/01/29 05:58:13;;;;;;;;;;;8.20;99.90;;;;;;5070888;28;19928;-60
2022/01/29 06:00:39;;;;;;;;;;;8.20;99.90;;;;;;5037527;28;19931;-60
2022/01/29 06:03:05;;;;;;;;;;;8.20;99.90;;;;;;5074266;28;19932;-60
2022/01/29 06:05:31;;;;;;;;;;;8.20;99.90;;;;;;5074774;28;19978;-60
2022/01/29 06:07:57;;;;;;;;;;;8.20;99.90;;;;;;5074716;28;19974;-60
2022/01/29 06:10:23;;;;;;;;;;;8.30;99.90;;;;;;5075065;28;19992;-60
2022/01/29 06:12:58;;;;;;;;;;;8.30;99.90;;;;;;5074502;28;19932;-60
2022/01/29 06:15:23;;;;;;;;;;;8.30;99.90;;;;;;5074964;28;19968;-60
2022/01/29 06:17:49;;;;;;;;;;;8.30;99.90;;;;;;5073445;28;19994;-59
2022/01/29 06:20:14;;;;;;;;;;;8.30;99.90;;;;;;5108042;28;19925;-60
2022/01/29 06:22:43;;;;;;;;;;;8.30;99.90;;;;;;5074478;28;19928;-64
2022/01/29 06:25:09;;;;;;;;;;;8.30;99.90;;;;;;5073591;28;19932;-60
2022/01/29 06:27:35;;;;;;;;;;;8.30;99.90;;;;;;5074751;28;19947;-59
2022/01/29 06:30:00;;;;;;;;;;;8.30;99.90;;;;;;5074247;28;20015;-60
2022/01/29 06:32:26;;;;;;;;;;;8.30;99.90;;;;;;5074627;28;19924;-60
2022/01/29 06:34:52;;;;;;;;;;;8.30;99.90;;;;;;5074525;28;19946;-61
2022/01/29 06:37:17;;;;;;;;;;;8.30;99.90;;;;;;5074635;28;19930;-61
2022/01/29 06:39:43;;;;;;;;;;;8.40;99.90;;;;;;5107087;28;20317;-61
2022/01/29 06:42:08;;;;;;;;;;;8.40;99.90;;;;;;5107469;28;20418;-59
2022/01/29 06:44:34;;;;;;;;;;;8.40;99.90;;;;;;5090286;28;20520;-59
2022/01/29 06:47:00;;;;;;;;;;;8.40;99.90;;;;;;5072782;28;20267;-60
2022/01/29 06:49:25;;;;;;;;;;;8.40;99.90;;;;;;5107016;28;20366;-59
2022/01/29 06:51:53;;;;;;;;;;;8.40;99.90;;;;;;5073854;28;19924;-59
2022/01/29 06:54:18;;;;;;;;;;;8.40;99.90;;;;;;5074195;28;19925;-59
2022/01/29 06:56:44;;;;;;;;;;;8.40;99.90;;;;;;5073927;28;20378;-63
2022/01/29 06:59:09;;;;;;;;;;;8.40;99.90;;;;;;5106402;28;19929;-60
2022/01/29 07:01:35;;;;;;;;;;;8.40;99.90;;;;;;5106765;28;19955;-60
2022/01/29 07:04:01;;;;;;;;;;;8.40;99.90;;;;;;5072151;28;19925;-59
2022/01/29 07:06:26;;;;;;;;;;;8.40;99.90;;;;;;5073933;28;19925;-59
2022/01/29 07:08:52;;;;;;;;;;;8.40;99.90;;;;;;5106413;28;19940;-59
2022/01/29 07:11:20;;;;;;;;;;;8.40;99.90;;;;;;5072989;28;19924;-60
2022/01/29 07:13:46;;;;;;;;;;;8.40;99.90;;;;;;5071562;28;19931;-63
2022/01/29 07:16:11;;;;;;;;;;;8.40;99.90;;;;;;5073710;28;20023;-59
2022/01/29 07:18:37;;;;;;;;;;;8.40;99.90;;;;;;5072682;28;19939;-60
2022/01/29 07:21:03;;;;;;;;;;;8.40;99.90;;;;;;5073295;28;19924;-60
2022/01/29 07:23:28;;;;;;;;;;;8.40;99.90;;;;;;5072717;28;19924;-60
2022/01/29 07:25:54;;;;;;;;;;;8.40;99.90;;;;;;5106119;28;19947;-60
2022/01/29 07:28:20;;;;;;;;;;;8.40;99.90;;;;;;5073535;28;19928;-60
2022/01/29 07:30:45;;;;;;;;;;;8.40;99.90;;;;;;5073385;28;20301;-60
2022/01/29 07:33:11;;;;;;;;;;;8.40;99.90;;;;;;5071822;28;19924;-62
2022/01/29 07:35:37;;;;;;;;;;;8.40;99.90;;;;;;5073353;28;19931;-60
2022/01/29 07:38:02;;;;;;;;;;;8.40;99.90;;;;;;5105885;28;20070;-60
2022/01/29 07:40:28;;;;;;;;;;;8.40;99.90;;;;;;5089088;28;19936;-61
2022/01/29 07:42:54;;;;;;;;;;;8.40;99.90;;;;;;5071449;28;19924;-59
2022/01/29 07:45:19;;;;;;;;;;;8.40;99.90;;;;;;5105927;28;19951;-59
2022/01/29 07:47:45;;;;;;;;;;;8.40;99.90;;;;;;5071735;28;19928;-58
2022/01/29 07:50:10;;;;;;;;;;;8.40;99.90;;;;;;5072313;28;19920;-59
2022/01/29 07:52:36;;;;;;;;;;;8.40;99.90;;;;;;5088564;28;20383;-60
2022/01/29 07:55:02;;;;;;;;;;;8.40;99.90;;;;;;5072379;28;19986;-59
2022/01/29 07:57:27;;;;;;;;;;;8.40;99.90;;;;;;5071521;28;19932;-59
2022/01/29 07:59:53;;;;;;;;;;;8.40;99.90;;;;;;5070436;28;19925;-64
2022/01/29 08:02:19;;;;;;;;;;;8.40;99.90;;;;;;5072505;28;20271;-61
2022/01/29 08:04:45;;;;;;;;;;;8.40;99.90;;;;;;5071361;28;19929;-61
2022/01/29 08:07:10;;;;;;;;;;;8.40;99.90;;;;;;5072265;28;19928;-60
2022/01/29 08:09:36;;;;;;;;;;;8.40;99.90;;;;;;5071453;28;20056;-59
2022/01/29 08:12:02;;;;;;;;;;;8.40;99.90;;;;;;5071872;28;19924;-59
2022/01/29 08:14:27;;;;;;;;;;;8.40;99.90;;;;;;5072524;28;20019;-60
2022/01/29 08:16:53;;;;;;;;;;;8.40;99.90;;;;;;5088593;28;20025;-63
2022/01/29 08:19:18;;;;;;;;;;;8.50;99.90;;;;;;5104963;28;19924;-60
2022/01/29 08:21:44;;;;;;;;;;;8.50;99.90;;;;;;5072717;28;19929;-60
2022/01/29 08:24:10;;;;;;;;;;;8.50;99.90;;;;;;5072180;28;19929;-60
2022/01/29 08:26:35;;;;;;;;;;;8.50;99.90;;;;;;5071106;28;19924;-60
2022/01/29 08:29:01;;;;;;;;;;;8.60;99.90;;;;;;5071877;28;20293;-62
2022/01/29 08:31:26;;;;;;;;;;;8.60;99.90;;;;;;5071752;28;19924;-59
2022/01/29 08:33:52;;;;;;;;;;;8.60;99.90;;;;;;5105239;28;20011;-60
2022/01/29 08:36:17;;;;;;;;;;;8.70;99.90;;;;;;5071912;28;20061;-59
2022/01/29 08:38:43;;;;;;;;;;;8.70;99.90;;;;;;5072271;28;19924;-60
2022/01/29 08:41:09;;;;;;;;;;;8.70;99.90;;;;;;5104665;28;20045;-59
2022/01/29 08:43:34;;;;;;;;;;;8.70;99.90;;;;;;5104796;28;20297;-59
2022/01/29 08:46:01;;;;;;;;;;;8.70;99.90;;;;;;5071660;28;19928;-60
2022/01/29 08:48:27;;;;;;;;;;;8.70;99.90;;;;;;5072049;28;19924;-59
2022/01/29 08:50:53;;;;;;;;;;;8.80;99.90;;;;;;5088106;28;19947;-59
2022/01/29 08:53:19;;;;;;;;;;;8.80;99.90;;;;;;5071587;28;20158;-59
2022/01/29 08:55:47;;;;;;;;;;;8.80;99.90;;;;;;5071266;28;21826;-59
2022/01/29 08:58:13;;;;;;;;;;;8.90;99.90;;;;;;5070741;28;19947;-59
2022/01/29 09:00:39;;;;;;;;;;;8.90;99.90;;;;;;5070483;28;19924;-60
2022/01/29 09:03:05;;;;;;;;;;;9.00;99.90;;;;;;5070546;28;19931;-59
2022/01/29 09:05:30;;;;;;;;;;;9.00;99.90;;;;;;5071886;28;19928;-61
2022/01/29 09:07:56;;;;;;;;;;;9.00;99.90;;;;;;5071920;28;19925;-60
2022/01/29 09:10:22;;;;;;;;;;;9.10;99.90;;;;;;5070580;28;19999;-60
2022/01/29 09:12:47;;;;;;;;;;;9.10;99.90;;;;;;5070258;28;19924;-59
2022/01/29 09:15:13;;;;;;;;;;;9.10;99.90;;;;;;5070182;28;20333;-59
2022/01/29 09:17:39;;;;;;;;;;;9.10;99.90;;;;;;5104469;28;19931;-59
2022/01/29 09:20:06;;;;;;;;;;;9.10;99.90;;;;;;5071436;28;19924;-61
2022/01/29 09:22:32;;;;;;;;;;;9.10;99.90;;;;;;5087449;28;19924;-59
2022/01/29 09:24:57;;;;;;;;;;;9.10;99.90;;;;;;5104707;28;19932;-60
2022/01/29 09:27:23;;;;;;;;;;;9.10;99.90;;;;;;5104177;28;20024;-59
2022/01/29 09:29:48;;;;;;;;;;;9.10;99.90;;;;;;5071700;28;19990;-60
2022/01/29 09:32:14;;;;;;;;;;;9.20;99.90;;;;;;5070891;28;20330;-61
2022/01/29 09:34:40;;;;;;;;;;;9.20;99.90;;;;;;5070033;28;19928;-60
2022/01/29 09:37:05;;;;;;;;;;;9.20;99.90;;;;;;5107371;28;19997;-63
2022/01/29 09:39:31;;;;;;;;;;;9.20;99.90;;;;;;5075423;28;20026;-60
2022/01/29 09:41:57;;;;;;;;;;;9.20;99.90;;;;;;5075688;28;20285;-61
2022/01/29 09:44:23;;;;;;;;;;;9.20;99.90;;;;;;5074043;28;19978;-60
2022/01/29 09:46:50;;;;;;;;;;;9.30;99.90;;;;;;5091574;28;20378;-60
2022/01/29 09:49:16;;;;;;;;;;;9.30;99.90;;;;;;5074945;28;19931;-59
2022/01/29 09:51:41;;;;;;;;;;;9.30;99.90;;;;;;5074344;28;20373;-59
2022/01/29 09:54:07;;;;;;;;;;;9.30;99.90;;;;;;5074379;28;19924;-62
2022/01/29 09:56:33;;;;;;;;;;;9.50;99.90;;;;;;5107578;28;19929;-59
2022/01/29 09:58:59;;;;;;;;;;;9.40;99.90;;;;;;5075085;28;19932;-59
2022/01/29 10:01:24;;;;;;;;;;;9.40;99.90;;;;;;5057227;28;20374;-60
2022/01/29 10:04:04;;;;;;;;;;;9.40;99.90;;;;;;5074326;28;19928;-63
2022/01/29 10:06:30;;;;;;;;;;;9.50;99.90;;;;;;5074790;28;20014;-59
2022/01/29 10:08:56;;;;;;;;;;;9.50;99.90;;;;;;5075216;28;19925;-60
2022/01/29 10:11:25;;;;;;;;;;;9.50;99.90;;;;;;5074447;28;19924;-61
2022/01/29 10:13:52;;;;;;;;;;;9.50;99.90;;;;;;5074965;28;19924;-59
2022/01/29 10:16:25;;;;;;;;;;;9.50;99.90;;;;;;5074625;28;19924;-59
2022/01/29 10:18:58;;;;;;;;;;;9.60;99.90;;;;;;5074710;28;19932;-59
2022/01/29 10:21:25;;;;;;;;;;;9.60;99.90;;;;;;5072957;28;19925;-59
2022/01/29 10:24:03;;;;;;;;;;;9.60;99.90;;;;;;5074330;28;19928;-60
2022/01/29 10:26:42;;;;;;;;;;;9.60;99.90;;;;;;5073876;28;20020;-59
2022/01/29 10:29:09;;;;;;;;;;;9.60;99.90;;;;;;5074709;28;20011;-60
2022/01/29 10:31:39;;;;;;;;;;;9.60;99.90;;;;;;5106571;28;19928;-59
2022/01/29 10:34:13;;;;;;;;;;;9.60;99.90;;;;;;5074165;28;19924;-61
2022/01/29 10:36:39;;;;;;;;;;;9.70;99.90;;;;;;5106840;28;19924;-60
2022/01/29 10:39:05;;;;;;;;;;;9.70;99.90;;;;;;5106996;28;19994;-61
2022/01/29 10:41:31;;;;;;;;;;;9.70;99.90;;;;;;5074012;28;19932;-60
2022/01/29 10:43:57;;;;;;;;;;;9.70;99.90;;;;;;5074511;28;19925;-59
2022/01/29 10:46:25;;;;;;;;;;;9.70;99.90;;;;;;5073963;28;20062;-60
2022/01/29 10:48:51;;;;;;;;;;;9.80;99.90;;;;;;5073384;28;19925;-60
2022/01/29 10:51:16;;;;;;;;;;;9.80;99.90;;;;;;5072608;28;19947;-61
2022/01/29 10:53:42;;;;;;;;;;;9.80;99.90;;;;;;5106498;28;19924;-59
2022/01/29 10:56:07;;;;;;;;;;;9.80;99.90;;;;;;5074003;28;19925;-59
2022/01/29 10:58:40;;;;;;;;;;;9.80;99.90;;;;;;5073474;28;19950;-60
2022/01/29 11:01:09;;;;;;;;;;;9.80;99.90;;;;;;5074323;28;20316;-62
2022/01/29 11:03:35;;;;;;;;;;;9.80;99.90;;;;;;5072604;28;19920;-61
2022/01/29 11:06:01;;;;;;;;;;;9.80;99.90;;;;;;5106872;28;19931;-60
2022/01/29 11:08:27;;;;;;;;;;;9.80;99.90;;;;;;5073551;28;19924;-60
2022/01/29 11:10:53;;;;;;;;;;;9.90;99.90;;;;;;5074120;28;19978;-60
2022/01/29 11:13:19;;;;;;;;;;;9.90;99.90;;;;;;5073526;28;19924;-63
2022/01/29 11:15:44;;;;;;;;;;;9.90;99.90;;;;;;5072935;28;20376;-60
2022/01/29 11:18:10;;;;;;;;;;;9.90;99.90;;;;;;5073419;28;19933;-60
2022/01/29 11:20:36;;;;;;;;;;;9.90;99.90;;;;;;5073348;28;20062;-60
2022/01/29 11:23:01;;;;;;;;;;;10.00;99.90;;;;;;5073509;28;19967;-60
2022/01/29 11:25:31;;;;;;;;;;;9.90;99.90;;;;;;5072415;28;19924;-62
2022/01/29 11:28:20;;;;;;;;;;;9.90;99.90;;;;;;5073573;28;19946;-61
2022/01/29 11:30:47;;;;;;;;;;;9.90;99.90;;;;;;5089371;28;20247;-60
2022/01/29 11:33:12;;;;;;;;;;;9.90;99.90;;;;;;5072294;28;19925;-60
2022/01/29 11:35:52;;;;;;;;;;;10.00;99.90;;;;;;5071243;28;20479;-61
2022/01/29 11:38:31;;;;;;;;;;;10.00;99.90;;;;;;5070712;28;19925;-60
2022/01/29 11:40:58;;;;;;;;;;;10.00;99.90;;;;;;5088005;28;19924;-60
2022/01/29 11:43:27;;;;;;;;;;;10.00;99.90;;;;;;5072492;28;20300;-61
2022/01/29 11:46:10;;;;;;;;;;;10.00;99.90;;;;;;5073144;28;20016;-64
2022/01/29 11:48:48;;;;;;;;;;;10.10;99.90;;;;;;5071447;28;19924;-60
2022/01/29 11:51:15;;;;;;;;;;;10.10;99.90;;;;;;5071553;28;20035;-61
2022/01/29 11:53:43;;;;;;;;;;;10.10;99.90;;;;;;5072312;28;19924;-60
2022/01/29 11:56:25;;;;;;;;;;;10.10;99.90;;;;;;5088670;28;20416;-61
2022/01/29 11:59:11;;;;;;;;;;;10.10;99.90;;;;;;5087816;28;19977;-60
2022/01/29 12:01:37;;;;;;;;;;;10.20;99.90;;;;;;5104494;28;19947;-62
2022/01/29 12:04:02;;;;;;;;;;;10.40;99.90;;;;;;5072513;28;20273;-60
2022/01/29 12:06:32;;;;;;;;;;;10.30;99.90;;;;;;5071933;28;19925;-62
2022/01/29 12:09:02;;;;;;;;;;;10.30;99.90;;;;;;5054842;28;19932;-60
2022/01/29 12:11:28;;;;;;;;;;;10.40;99.90;;;;;;5071782;28;20152;-60
2022/01/29 12:14:12;;;;;;;;;;;10.40;99.90;;;;;;5054790;28;20019;-60
2022/01/29 12:16:59;;;;;;;;;;;10.40;99.90;;;;;;5072335;28;20254;-60
2022/01/29 12:19:45;;;;;;;;;;;10.40;99.90;;;;;;5072136;28;19978;-65
2022/01/29 12:22:12;;;;;;;;;;;10.50;99.90;;;;;;5069968;28;19928;-62
2022/01/29 12:24:38;;;;;;;;;;;10.50;99.90;;;;;;5072015;28;19926;-61
2022/01/29 12:27:04;;;;;;;;;;;10.50;99.90;;;;;;5070593;28;20294;-60
2022/01/29 12:29:30;;;;;;;;;;;10.60;99.90;;;;;;5070633;28;19928;-61
2022/01/29 12:31:58;;;;;;;;;;;10.60;99.90;;;;;;5071794;28;20442;-60
2022/01/29 12:34:25;;;;;;;;;;;10.60;99.90;;;;;;5070759;28;19924;-60
2022/01/29 12:36:51;;;;;;;;;;;10.70;99.90;;;;;;5071751;28;19936;-60
2022/01/29 12:39:23;;;;;;;;;;;10.70;99.90;;;;;;5071943;28;20023;-60
2022/01/29 12:42:03;;;;;;;;;;;10.70;99.90;;;;;;5070509;28;20003;-60
2022/01/29 12:44:29;;;;;;;;;;;10.80;99.90;;;;;;5070467;28;19924;-63
2022/01/29 12:46:55;;;;;;;;;;;10.80;99.90;;;;;;5070197;28;19924;-61
2022/01/29 12:49:20;;;;;;;;;;;10.80;99.90;;;;;;5103703;28;19967;-60
2022/01/29 12:51:50;;;;;;;;;;;10.80;99.90;;;;;;5071020;28;20082;-60
2022/01/29 12:54:16;;;;;;;;;;;10.80;99.90;;;;;;5071768;28;19928;-60
2022/01/29 12:56:42;;;;;;;;;;;10.80;99.90;;;;;;5070207;28;20027;-60
2022/01/29 12:59:08;;;;;;;;;;;10.90;99.90;;;;;;5071622;28;20099;-61
2022/01/29 13:01:35;;;;;;;;;;;10.90;99.90;;;;;;5070394;28;20258;-61
2022/01/29 13:04:18;;;;;;;;;;;10.90;99.90;;;;;;5071284;28;20553;-60
2022/01/29 13:06:45;;;;;;;;;;;10.80;99.90;;;;;;5069562;28;19975;-61
2022/01/29 13:09:14;;;;;;;;;;;10.80;99.90;;;;;;5071647;28;20017;-61
2022/01/29 13:11:39;;;;;;;;;;;10.80;99.90;;;;;;5070094;28;20390;-60
2022/01/29 13:14:11;;;;;;;;;;;10.80;99.90;;;;;;5070889;28;19932;-60
2022/01/29 13:16:37;;;;;;;;;;;10.80;99.90;;;;;;5102816;28;20006;-61
2022/01/29 13:19:03;;;;;;;;;;;10.90;99.90;;;;;;5071540;28;20350;-60
2022/01/29 13:21:30;;;;;;;;;;;10.90;99.90;;;;;;5070972;28;19924;-61
2022/01/29 13:23:56;;;;;;;;;;;10.90;99.90;;;;;;5069807;28;19920;-59
2022/01/29 13:26:28;;;;;;;;;;;10.90;99.90;;;;;;5071299;28;19924;-59
2022/01/29 13:29:05;;;;;;;;;;;10.90;99.90;;;;;;5070939;28;19925;-60
2022/01/29 13:31:45;;;;;;;;;;;11.00;99.90;;;;;;5103997;28;20019;-59
2022/01/29 13:34:43;;;;;;;;;;;11.00;99.90;;;;;;5069889;28;19932;-61
2022/01/29 13:37:27;;;;;;;;;;;11.10;99.90;;;;;;5025419;28;19978;-60
2022/01/29 13:39:53;;;;;;;;;;;11.10;99.90;;;;;;5070904;28;20455;-59
2022/01/29 13:42:20;;;;;;;;;;;11.10;99.90;;;;;;5071285;28;19928;-59
2022/01/29 13:45:00;;;;;;;;;;;11.00;99.90;;;;;;5070671;28;19925;-59
2022/01/29 13:47:26;;;;;;;;;;;11.00;99.90;;;;;;5071334;28;20385;-58
2022/01/29 13:49:53;;;;;;;;;;;11.00;99.90;;;;;;5086605;28;19932;-58
2022/01/29 13:52:22;;;;;;;;;;;11.10;99.90;;;;;;5070832;28;19971;-59
2022/01/29 13:54:51;;;;;;;;;;;11.10;99.90;;;;;;5070346;28;19928;-59
2022/01/29 13:57:16;;;;;;;;;;;11.10;99.90;;;;;;5071370;28;19968;-59
2022/01/29 13:59:42;;;;;;;;;;;11.10;99.90;;;;;;5070429;28;19925;-60
2022/01/29 14:02:08;;;;;;;;;;;11.10;99.90;;;;;;5069747;28;19924;-60
2022/01/29 14:04:37;;;;;;;;;;;11.20;99.90;;;;;;5086812;28;19924;-59
2022/01/29 14:07:05;;;;;;;;;;;11.10;99.90;;;;;;5070543;28;19943;-59
2022/01/29 14:09:34;;;;;;;;;;;11.10;99.90;;;;;;5069720;28;19982;-60
2022/01/29 14:12:05;;;;;;;;;;;11.10;99.90;;;;;;5070773;28;19928;-60
2022/01/29 14:14:35;;;;;;;;;;;11.10;99.90;;;;;;5069925;28;19928;-59
2022/01/29 14:17:03;;;;;;;;;;;11.10;99.90;;;;;;5070500;28;20554;-60
2022/01/29 14:19:30;;;;;;;;;;;11.20;99.90;;;;;;5070979;28;19982;-59
2022/01/29 14:21:57;;;;;;;;;;;11.20;99.90;;;;;;5071033;28;19928;-59
2022/01/29 14:24:23;;;;;;;;;;;11.20;99.90;;;;;;5074665;28;19983;-58
2022/01/29 14:26:49;;;;;;;;;;;11.20;99.90;;;;;;5072601;28;19931;-59
2022/01/29 14:29:15;;;;;;;;;;;11.30;99.90;;;;;;5074565;28;19925;-60
2022/01/29 14:31:41;;;;;;;;;;;11.30;99.90;;;;;;5074252;28;19925;-59
2022/01/29 14:34:06;;;;;;;;;;;11.30;99.90;;;;;;5073804;28;19931;-60
2022/01/29 14:36:32;;;;;;;;;;;11.30;99.90;;;;;;5056441;28;19928;-59
2022/01/29 14:38:58;;;;;;;;;;;11.30;99.90;;;;;;5073842;28;19924;-59
2022/01/29 14:41:24;;;;;;;;;;;11.20;99.90;;;;;;5073855;28;19932;-59